sensor_id;sensor_type;location;lat;lon;timestamp;pressure;altitude;pressure_sealevel;temperature;humidity
17521;BME280;8878;-33.370;-70.552;2023-02-25T00:02:22;92102.88;;;27.27;39.08
17521;BME280;8878;-33.370;-70.552;2023-02-25T00:04:51;92106.91;;;27.10;39.12
17521;BME280;8878;-33.370;-70.552;2023-02-25T00:07:21;92103.31;;;26.99;40.00
17521;BME280;8878;-33.370;-70.552;2023-02-25T00:09:54;92103.78;;;27.08;39.28
17521;BME280;8878;-33.370;-70.552;2023-02-25T00:12:31;92121.44;;;26.42;40.37
17521;BME280;8878;-33.370;-70.552;2023-02-25T00:15:09;92132.50;;;26.11;40.56
17521;BME280;8878;-33.370;-70.552;2023-02-25T00:17:39;92133.16;;;25.82;40.91
17521;BME280;8878;-33.370;-70.552;2023-02-25T00:20:11;92137.06;;;25.61;41.03
17521;BME280;8878;-33.370;-70.552;2023-02-25T00:22:40;92129.75;;;25.43;41.80
17521;BME280;8878;-33.370;-70.552;2023-02-25T00:25:10;92131.22;;;25.59;42.02
17521;BME280;8878;-33.370;-70.552;2023-02-25T00:27:39;92134.78;;;25.63;41.52
17521;BME280;8878;-33.370;-70.552;2023-02-25T00:30:12;92146.22;;;25.57;41.66
17521;BME280;8878;-33.370;-70.552;2023-02-25T00:32:41;92150.84;;;25.56;41.75
17521;BME280;8878;-33.370;-70.552;2023-02-25T00:35:10;92156.41;;;25.86;41.02
17521;BME280;8878;-33.370;-70.552;2023-02-25T00:37:40;92156.72;;;26.04;41.00
17521;BME280;8878;-33.370;-70.552;2023-02-25T00:40:10;92154.44;;;26.06;40.73
17521;BME280;8878;-33.370;-70.552;2023-02-25T00:42:41;92153.13;;;26.19;40.88
17521;BME280;8878;-33.370;-70.552;2023-02-25T00:45:13;92163.34;;;26.06;40.53
17521;BME280;8878;-33.370;-70.552;2023-02-25T00:47:43;92159.25;;;25.93;40.87
17521;BME280;8878;-33.370;-70.552;2023-02-25T00:50:12;92164.47;;;26.05;40.16
17521;BME280;8878;-33.370;-70.552;2023-02-25T00:52:43;92171.94;;;26.12;40.75
17521;BME280;8878;-33.370;-70.552;2023-02-25T00:55:13;92173.00;;;25.85;40.78
17521;BME280;8878;-33.370;-70.552;2023-02-25T00:57:42;92165.94;;;25.80;40.88
17521;BME280;8878;-33.370;-70.552;2023-02-25T01:00:14;92162.78;;;25.74;42.16
17521;BME280;8878;-33.370;-70.552;2023-02-25T01:02:44;92166.06;;;25.64;42.52
17521;BME280;8878;-33.370;-70.552;2023-02-25T01:05:15;92173.81;;;25.47;43.24
17521;BME280;8878;-33.370;-70.552;2023-02-25T01:07:44;92176.16;;;25.48;43.27
17521;BME280;8878;-33.370;-70.552;2023-02-25T01:10:13;92170.59;;;25.41;43.43
17521;BME280;8878;-33.370;-70.552;2023-02-25T01:12:44;92169.75;;;25.37;43.54
17521;BME280;8878;-33.370;-70.552;2023-02-25T01:15:15;92180.13;;;25.35;43.54
17521;BME280;8878;-33.370;-70.552;2023-02-25T01:17:44;92178.13;;;25.32;43.25
17521;BME280;8878;-33.370;-70.552;2023-02-25T01:20:14;92183.53;;;25.32;43.55
17521;BME280;8878;-33.370;-70.552;2023-02-25T01:22:46;92174.66;;;25.12;44.15
17521;BME280;8878;-33.370;-70.552;2023-02-25T01:25:15;92187.34;;;24.92;44.66
17521;BME280;8878;-33.370;-70.552;2023-02-25T01:27:44;92193.03;;;24.72;44.66
17521;BME280;8878;-33.370;-70.552;2023-02-25T01:30:16;92182.41;;;24.79;44.78
17521;BME280;8878;-33.370;-70.552;2023-02-25T01:32:45;92183.28;;;24.67;45.38
17521;BME280;8878;-33.370;-70.552;2023-02-25T01:35:16;92188.09;;;24.58;45.30
17521;BME280;8878;-33.370;-70.552;2023-02-25T01:37:45;92182.97;;;24.53;44.99
17521;BME280;8878;-33.370;-70.552;2023-02-25T01:40:16;92190.09;;;24.45;45.75
17521;BME280;8878;-33.370;-70.552;2023-02-25T01:42:46;92191.66;;;24.46;45.18
17521;BME280;8878;-33.370;-70.552;2023-02-25T01:45:35;92184.19;;;24.55;45.24
17521;BME280;8878;-33.370;-70.552;2023-02-25T01:48:11;92181.84;;;24.54;45.15
17521;BME280;8878;-33.370;-70.552;2023-02-25T01:50:46;92185.31;;;24.54;44.73
17521;BME280;8878;-33.370;-70.552;2023-02-25T01:53:20;92182.38;;;24.44;45.21
17521;BME280;8878;-33.370;-70.552;2023-02-25T01:55:52;92189.16;;;24.38;45.27
17521;BME280;8878;-33.370;-70.552;2023-02-25T01:58:22;92182.28;;;24.25;46.06
17521;BME280;8878;-33.370;-70.552;2023-02-25T02:00:54;92179.38;;;24.02;46.91
17521;BME280;8878;-33.370;-70.552;2023-02-25T02:03:25;92176.19;;;23.96;46.84
17521;BME280;8878;-33.370;-70.552;2023-02-25T02:06:01;92176.00;;;23.89;47.12
17521;BME280;8878;-33.370;-70.552;2023-02-25T02:08:34;92176.59;;;23.83;47.10
17521;BME280;8878;-33.370;-70.552;2023-02-25T02:11:04;92178.34;;;23.75;46.84
17521;BME280;8878;-33.370;-70.552;2023-02-25T02:13:36;92174.25;;;23.65;47.14
17521;BME280;8878;-33.370;-70.552;2023-02-25T02:16:25;92173.97;;;23.55;46.99
17521;BME280;8878;-33.370;-70.552;2023-02-25T02:18:58;92169.47;;;23.59;47.46
17521;BME280;8878;-33.370;-70.552;2023-02-25T02:21:48;92172.66;;;23.49;47.37
17521;BME280;8878;-33.370;-70.552;2023-02-25T02:24:56;92169.06;;;23.45;47.58
17521;BME280;8878;-33.370;-70.552;2023-02-25T02:30:46;92171.78;;;23.32;47.61
17521;BME280;8878;-33.370;-70.552;2023-02-25T02:33:24;92163.25;;;23.30;48.06
17521;BME280;8878;-33.370;-70.552;2023-02-25T02:36:02;92171.06;;;23.20;48.11
17521;BME280;8878;-33.370;-70.552;2023-02-25T02:38:40;92169.22;;;23.24;48.13
17521;BME280;8878;-33.370;-70.552;2023-02-25T02:41:21;92166.34;;;23.17;47.04
17521;BME280;8878;-33.370;-70.552;2023-02-25T02:43:58;92161.53;;;23.38;48.74
17521;BME280;8878;-33.370;-70.552;2023-02-25T02:46:34;92150.75;;;23.50;49.95
17521;BME280;8878;-33.370;-70.552;2023-02-25T02:49:10;92152.91;;;23.45;49.93
17521;BME280;8878;-33.370;-70.552;2023-02-25T02:51:48;92155.03;;;23.39;49.58
17521;BME280;8878;-33.370;-70.552;2023-02-25T02:54:20;92150.75;;;23.22;49.35
17521;BME280;8878;-33.370;-70.552;2023-02-25T02:56:51;92150.38;;;23.08;49.29
17521;BME280;8878;-33.370;-70.552;2023-02-25T02:59:25;92143.94;;;23.13;49.16
17521;BME280;8878;-33.370;-70.552;2023-02-25T03:01:59;92146.59;;;23.25;47.77
17521;BME280;8878;-33.370;-70.552;2023-02-25T03:04:36;92141.53;;;23.23;47.60
17521;BME280;8878;-33.370;-70.552;2023-02-25T03:07:08;92146.34;;;23.30;47.83
17521;BME280;8878;-33.370;-70.552;2023-02-25T03:09:41;92136.78;;;23.32;48.21
17521;BME280;8878;-33.370;-70.552;2023-02-25T03:12:13;92144.47;;;23.18;47.86
17521;BME280;8878;-33.370;-70.552;2023-02-25T03:14:42;92135.34;;;23.07;46.83
17521;BME280;8878;-33.370;-70.552;2023-02-25T03:17:13;92142.63;;;23.07;45.65
17521;BME280;8878;-33.370;-70.552;2023-02-25T03:19:49;92134.75;;;23.14;45.39
17521;BME280;8878;-33.370;-70.552;2023-02-25T03:22:21;92143.09;;;23.24;45.18
17521;BME280;8878;-33.370;-70.552;2023-02-25T03:25:02;92132.94;;;23.18;45.56
17521;BME280;8878;-33.370;-70.552;2023-02-25T03:27:35;92131.81;;;23.19;46.53
17521;BME280;8878;-33.370;-70.552;2023-02-25T03:30:11;92130.34;;;23.21;47.45
17521;BME280;8878;-33.370;-70.552;2023-02-25T03:32:46;92129.91;;;23.19;48.13
17521;BME280;8878;-33.370;-70.552;2023-02-25T03:35:19;92123.47;;;23.08;46.85
17521;BME280;8878;-33.370;-70.552;2023-02-25T03:37:53;92121.38;;;23.17;47.82
17521;BME280;8878;-33.370;-70.552;2023-02-25T03:40:24;92122.63;;;23.20;47.50
17521;BME280;8878;-33.370;-70.552;2023-02-25T03:42:59;92116.59;;;22.71;48.28
17521;BME280;8878;-33.370;-70.552;2023-02-25T03:45:32;92115.41;;;22.96;47.51
17521;BME280;8878;-33.370;-70.552;2023-02-25T03:48:04;92112.91;;;23.03;48.30
17521;BME280;8878;-33.370;-70.552;2023-02-25T03:50:41;92112.59;;;23.04;48.82
17521;BME280;8878;-33.370;-70.552;2023-02-25T03:53:11;92113.44;;;22.81;46.92
17521;BME280;8878;-33.370;-70.552;2023-02-25T03:55:41;92106.53;;;22.80;45.69
17521;BME280;8878;-33.370;-70.552;2023-02-25T03:58:10;92110.34;;;22.79;46.74
17521;BME280;8878;-33.370;-70.552;2023-02-25T04:00:40;92107.16;;;22.89;46.98
17521;BME280;8878;-33.370;-70.552;2023-02-25T04:03:10;92095.59;;;22.88;47.88
17521;BME280;8878;-33.370;-70.552;2023-02-25T04:05:42;92097.91;;;22.74;47.76
17521;BME280;8878;-33.370;-70.552;2023-02-25T04:08:11;92106.63;;;22.71;47.67
17521;BME280;8878;-33.370;-70.552;2023-02-25T04:10:44;92100.13;;;22.72;46.90
17521;BME280;8878;-33.370;-70.552;2023-02-25T04:13:14;92098.34;;;22.76;46.73
17521;BME280;8878;-33.370;-70.552;2023-02-25T04:15:47;92099.03;;;22.73;47.28
17521;BME280;8878;-33.370;-70.552;2023-02-25T04:18:16;92102.94;;;22.63;47.96
17521;BME280;8878;-33.370;-70.552;2023-02-25T04:20:48;92111.06;;;22.51;49.15
17521;BME280;8878;-33.370;-70.552;2023-02-25T04:23:17;92112.88;;;22.35;49.18
17521;BME280;8878;-33.370;-70.552;2023-02-25T04:25:48;92108.84;;;22.29;50.13
17521;BME280;8878;-33.370;-70.552;2023-02-25T04:28:18;92107.50;;;22.35;49.72
17521;BME280;8878;-33.370;-70.552;2023-02-25T04:30:47;92103.81;;;22.27;49.68
17521;BME280;8878;-33.370;-70.552;2023-02-25T04:33:17;92105.06;;;22.30;49.32
17521;BME280;8878;-33.370;-70.552;2023-02-25T04:35:48;92105.34;;;22.41;49.07
17521;BME280;8878;-33.370;-70.552;2023-02-25T04:38:18;92100.09;;;22.44;48.64
17521;BME280;8878;-33.370;-70.552;2023-02-25T04:40:50;92104.06;;;21.98;47.75
17521;BME280;8878;-33.370;-70.552;2023-02-25T04:43:19;92098.13;;;22.05;48.22
17521;BME280;8878;-33.370;-70.552;2023-02-25T04:45:49;92104.16;;;22.26;49.70
17521;BME280;8878;-33.370;-70.552;2023-02-25T04:48:18;92106.94;;;22.17;50.72
17521;BME280;8878;-33.370;-70.552;2023-02-25T04:50:51;92112.22;;;22.14;50.32
17521;BME280;8878;-33.370;-70.552;2023-02-25T04:53:21;92117.69;;;21.93;50.23
17521;BME280;8878;-33.370;-70.552;2023-02-25T04:55:51;92104.91;;;21.90;50.33
17521;BME280;8878;-33.370;-70.552;2023-02-25T04:58:20;92101.81;;;21.88;50.40
17521;BME280;8878;-33.370;-70.552;2023-02-25T05:00:50;92099.00;;;21.84;50.24
17521;BME280;8878;-33.370;-70.552;2023-02-25T05:03:23;92099.44;;;21.86;50.14
17521;BME280;8878;-33.370;-70.552;2023-02-25T05:05:54;92089.13;;;21.88;50.63
17521;BME280;8878;-33.370;-70.552;2023-02-25T05:08:25;92092.50;;;21.85;50.54
17521;BME280;8878;-33.370;-70.552;2023-02-25T05:10:54;92081.09;;;21.76;51.08
17521;BME280;8878;-33.370;-70.552;2023-02-25T05:13:26;92081.78;;;21.73;50.70
17521;BME280;8878;-33.370;-70.552;2023-02-25T05:16:04;92091.59;;;21.69;50.92
17521;BME280;8878;-33.370;-70.552;2023-02-25T05:18:35;92087.56;;;21.63;51.12
17521;BME280;8878;-33.370;-70.552;2023-02-25T05:21:14;92079.41;;;21.60;51.14
17521;BME280;8878;-33.370;-70.552;2023-02-25T05:23:45;92084.44;;;21.61;51.28
17521;BME280;8878;-33.370;-70.552;2023-02-25T05:26:16;92079.50;;;21.51;51.25
17521;BME280;8878;-33.370;-70.552;2023-02-25T05:28:48;92080.06;;;21.57;51.25
17521;BME280;8878;-33.370;-70.552;2023-02-25T05:31:18;92083.41;;;21.54;51.52
17521;BME280;8878;-33.370;-70.552;2023-02-25T05:33:48;92086.31;;;21.48;51.44
17521;BME280;8878;-33.370;-70.552;2023-02-25T05:36:19;92086.09;;;21.41;51.72
17521;BME280;8878;-33.370;-70.552;2023-02-25T05:38:48;92090.44;;;21.46;51.31
17521;BME280;8878;-33.370;-70.552;2023-02-25T05:41:20;92091.59;;;21.45;51.35
17521;BME280;8878;-33.370;-70.552;2023-02-25T05:43:50;92088.00;;;21.53;50.92
17521;BME280;8878;-33.370;-70.552;2023-02-25T05:46:19;92090.69;;;21.53;50.79
17521;BME280;8878;-33.370;-70.552;2023-02-25T05:48:49;92083.31;;;21.50;51.47
17521;BME280;8878;-33.370;-70.552;2023-02-25T05:51:20;92077.25;;;21.53;50.72
17521;BME280;8878;-33.370;-70.552;2023-02-25T05:53:50;92071.56;;;21.42;50.96
17521;BME280;8878;-33.370;-70.552;2023-02-25T05:56:21;92075.25;;;21.38;51.79
17521;BME280;8878;-33.370;-70.552;2023-02-25T05:58:51;92070.75;;;21.30;52.14
17521;BME280;8878;-33.370;-70.552;2023-02-25T06:01:35;92069.84;;;21.26;51.75
17521;BME280;8878;-33.370;-70.552;2023-02-25T06:04:05;92067.84;;;21.23;51.83
17521;BME280;8878;-33.370;-70.552;2023-02-25T06:06:36;92058.59;;;21.11;51.89
17521;BME280;8878;-33.370;-70.552;2023-02-25T06:09:05;92062.22;;;21.16;51.96
17521;BME280;8878;-33.370;-70.552;2023-02-25T06:11:35;92062.53;;;21.14;52.24
17521;BME280;8878;-33.370;-70.552;2023-02-25T06:14:06;92072.28;;;21.19;52.21
17521;BME280;8878;-33.370;-70.552;2023-02-25T06:16:38;92076.47;;;21.28;51.69
17521;BME280;8878;-33.370;-70.552;2023-02-25T06:19:08;92076.38;;;21.37;51.19
17521;BME280;8878;-33.370;-70.552;2023-02-25T06:21:40;92070.75;;;21.30;51.45
17521;BME280;8878;-33.370;-70.552;2023-02-25T06:24:10;92065.59;;;21.25;51.55
17521;BME280;8878;-33.370;-70.552;2023-02-25T06:26:39;92065.50;;;21.21;51.02
17521;BME280;8878;-33.370;-70.552;2023-02-25T06:29:10;92062.88;;;21.13;50.76
17521;BME280;8878;-33.370;-70.552;2023-02-25T06:31:39;92076.25;;;21.00;51.40
17521;BME280;8878;-33.370;-70.552;2023-02-25T06:34:09;92066.34;;;20.80;52.21
17521;BME280;8878;-33.370;-70.552;2023-02-25T06:36:41;92063.41;;;21.06;51.70
17521;BME280;8878;-33.370;-70.552;2023-02-25T06:39:10;92066.84;;;20.94;51.55
17521;BME280;8878;-33.370;-70.552;2023-02-25T06:41:39;92065.78;;;20.75;52.29
17521;BME280;8878;-33.370;-70.552;2023-02-25T06:44:09;92068.78;;;21.06;51.60
17521;BME280;8878;-33.370;-70.552;2023-02-25T06:46:38;92067.28;;;21.17;52.07
17521;BME280;8878;-33.370;-70.552;2023-02-25T06:49:09;92063.31;;;21.15;53.00
17521;BME280;8878;-33.370;-70.552;2023-02-25T06:51:40;92066.72;;;20.91;54.18
17521;BME280;8878;-33.370;-70.552;2023-02-25T06:54:09;92066.53;;;20.75;54.96
17521;BME280;8878;-33.370;-70.552;2023-02-25T06:56:39;92071.72;;;20.80;54.74
17521;BME280;8878;-33.370;-70.552;2023-02-25T06:59:08;92071.22;;;20.99;53.64
17521;BME280;8878;-33.370;-70.552;2023-02-25T07:01:38;92070.09;;;21.00;53.58
17521;BME280;8878;-33.370;-70.552;2023-02-25T07:04:08;92065.75;;;20.95;53.41
17521;BME280;8878;-33.370;-70.552;2023-02-25T07:06:40;92059.91;;;20.93;53.51
17521;BME280;8878;-33.370;-70.552;2023-02-25T07:09:10;92060.25;;;20.92;54.04
17521;BME280;8878;-33.370;-70.552;2023-02-25T07:11:39;92057.63;;;20.83;54.36
17521;BME280;8878;-33.370;-70.552;2023-02-25T07:14:09;92048.44;;;20.72;54.19
17521;BME280;8878;-33.370;-70.552;2023-02-25T07:16:40;92051.53;;;20.62;54.39
17521;BME280;8878;-33.370;-70.552;2023-02-25T07:19:09;92035.72;;;20.48;54.97
17521;BME280;8878;-33.370;-70.552;2023-02-25T07:21:42;92035.66;;;20.57;54.62
17521;BME280;8878;-33.370;-70.552;2023-02-25T07:24:13;92033.88;;;20.61;54.67
17521;BME280;8878;-33.370;-70.552;2023-02-25T07:26:42;92021.94;;;20.17;55.21
17521;BME280;8878;-33.370;-70.552;2023-02-25T07:29:12;92027.75;;;19.98;56.09
17521;BME280;8878;-33.370;-70.552;2023-02-25T07:31:41;92025.97;;;19.81;56.60
17521;BME280;8878;-33.370;-70.552;2023-02-25T07:34:11;92021.47;;;19.94;56.17
17521;BME280;8878;-33.370;-70.552;2023-02-25T07:36:42;92018.81;;;19.94;56.24
17521;BME280;8878;-33.370;-70.552;2023-02-25T07:39:13;92021.16;;;20.16;56.12
17521;BME280;8878;-33.370;-70.552;2023-02-25T07:41:42;92021.44;;;20.44;55.10
17521;BME280;8878;-33.370;-70.552;2023-02-25T07:44:14;92025.97;;;20.64;54.28
17521;BME280;8878;-33.370;-70.552;2023-02-25T07:46:43;92020.22;;;20.75;54.09
17521;BME280;8878;-33.370;-70.552;2023-02-25T07:49:13;92018.19;;;20.71;53.86
17521;BME280;8878;-33.370;-70.552;2023-02-25T07:51:44;92022.63;;;20.67;53.61
17521;BME280;8878;-33.370;-70.552;2023-02-25T07:54:13;92028.44;;;20.69;54.01
17521;BME280;8878;-33.370;-70.552;2023-02-25T07:56:43;92031.81;;;20.79;52.97
17521;BME280;8878;-33.370;-70.552;2023-02-25T07:59:12;92029.00;;;20.75;52.99
17521;BME280;8878;-33.370;-70.552;2023-02-25T08:01:41;92030.41;;;20.81;52.59
17521;BME280;8878;-33.370;-70.552;2023-02-25T08:04:11;92029.19;;;20.58;52.60
17521;BME280;8878;-33.370;-70.552;2023-02-25T08:06:43;92028.91;;;20.39;53.11
17521;BME280;8878;-33.370;-70.552;2023-02-25T08:09:13;92027.97;;;20.35;53.41
17521;BME280;8878;-33.370;-70.552;2023-02-25T08:11:42;92029.53;;;20.36;53.78
17521;BME280;8878;-33.370;-70.552;2023-02-25T08:14:12;92022.88;;;20.42;54.74
17521;BME280;8878;-33.370;-70.552;2023-02-25T08:16:42;92029.13;;;20.66;53.99
17521;BME280;8878;-33.370;-70.552;2023-02-25T08:19:11;92025.09;;;20.73;53.72
17521;BME280;8878;-33.370;-70.552;2023-02-25T08:21:41;92029.13;;;20.66;53.42
17521;BME280;8878;-33.370;-70.552;2023-02-25T08:24:12;92030.75;;;20.59;54.43
17521;BME280;8878;-33.370;-70.552;2023-02-25T08:26:41;92030.50;;;20.52;54.06
17521;BME280;8878;-33.370;-70.552;2023-02-25T08:29:10;92042.09;;;20.44;53.56
17521;BME280;8878;-33.370;-70.552;2023-02-25T08:31:40;92039.78;;;20.33;52.69
17521;BME280;8878;-33.370;-70.552;2023-02-25T08:34:09;92034.16;;;20.26;52.33
17521;BME280;8878;-33.370;-70.552;2023-02-25T08:36:38;92034.88;;;20.15;53.03
17521;BME280;8878;-33.370;-70.552;2023-02-25T08:39:08;92027.47;;;20.32;52.93
17521;BME280;8878;-33.370;-70.552;2023-02-25T08:41:39;92026.03;;;20.56;53.05
17521;BME280;8878;-33.370;-70.552;2023-02-25T08:44:11;92019.13;;;20.55;53.07
17521;BME280;8878;-33.370;-70.552;2023-02-25T08:46:40;92015.28;;;20.44;53.74
17521;BME280;8878;-33.370;-70.552;2023-02-25T08:49:09;92021.03;;;20.33;54.18
17521;BME280;8878;-33.370;-70.552;2023-02-25T08:51:40;92035.06;;;20.30;55.00
17521;BME280;8878;-33.370;-70.552;2023-02-25T08:54:12;92033.50;;;20.29;54.67
17521;BME280;8878;-33.370;-70.552;2023-02-25T08:56:44;92031.88;;;20.16;55.40
17521;BME280;8878;-33.370;-70.552;2023-02-25T08:59:14;92028.16;;;20.09;55.67
17521;BME280;8878;-33.370;-70.552;2023-02-25T09:01:44;92029.09;;;20.04;55.93
17521;BME280;8878;-33.370;-70.552;2023-02-25T09:04:16;92025.47;;;20.09;55.64
17521;BME280;8878;-33.370;-70.552;2023-02-25T09:06:49;92024.38;;;20.10;55.52
17521;BME280;8878;-33.370;-70.552;2023-02-25T09:09:20;92028.59;;;20.11;56.02
17521;BME280;8878;-33.370;-70.552;2023-02-25T09:11:51;92023.38;;;20.14;55.19
17521;BME280;8878;-33.370;-70.552;2023-02-25T09:14:21;92033.19;;;20.10;55.33
17521;BME280;8878;-33.370;-70.552;2023-02-25T09:16:51;92023.69;;;20.13;55.31
17521;BME280;8878;-33.370;-70.552;2023-02-25T09:19:21;92034.41;;;20.13;55.26
17521;BME280;8878;-33.370;-70.552;2023-02-25T09:21:50;92039.75;;;20.13;55.17
17521;BME280;8878;-33.370;-70.552;2023-02-25T09:24:20;92047.06;;;20.04;55.26
17521;BME280;8878;-33.370;-70.552;2023-02-25T09:26:51;92054.72;;;19.93;56.13
17521;BME280;8878;-33.370;-70.552;2023-02-25T09:29:20;92046.22;;;19.91;56.46
17521;BME280;8878;-33.370;-70.552;2023-02-25T09:31:50;92052.03;;;19.93;55.94
17521;BME280;8878;-33.370;-70.552;2023-02-25T09:34:19;92067.75;;;19.74;55.08
17521;BME280;8878;-33.370;-70.552;2023-02-25T09:36:49;92066.81;;;19.70;55.23
17521;BME280;8878;-33.370;-70.552;2023-02-25T09:39:18;92078.59;;;19.39;55.84
17521;BME280;8878;-33.370;-70.552;2023-02-25T09:41:52;92070.81;;;19.55;55.08
17521;BME280;8878;-33.370;-70.552;2023-02-25T09:44:27;92079.16;;;19.83;56.32
17521;BME280;8878;-33.370;-70.552;2023-02-25T09:47:01;92078.50;;;19.94;55.93
17521;BME280;8878;-33.370;-70.552;2023-02-25T09:49:35;92072.94;;;20.00;56.17
17521;BME280;8878;-33.370;-70.552;2023-02-25T09:52:11;92066.22;;;20.14;55.83
17521;BME280;8878;-33.370;-70.552;2023-02-25T09:54:45;92068.84;;;20.02;55.92
17521;BME280;8878;-33.370;-70.552;2023-02-25T09:57:19;92065.78;;;19.83;56.07
17521;BME280;8878;-33.370;-70.552;2023-02-25T09:59:50;92069.25;;;19.54;55.77
17521;BME280;8878;-33.370;-70.552;2023-02-25T10:02:29;92074.16;;;19.43;56.85
17521;BME280;8878;-33.370;-70.552;2023-02-25T10:05:14;92066.06;;;19.14;57.25
17521;BME280;8878;-33.370;-70.552;2023-02-25T10:07:55;92075.69;;;18.98;57.87
17521;BME280;8878;-33.370;-70.552;2023-02-25T10:10:31;92084.91;;;19.26;57.74
17521;BME280;8878;-33.370;-70.552;2023-02-25T10:13:14;92085.19;;;19.33;57.01
17521;BME280;8878;-33.370;-70.552;2023-02-25T10:15:53;92088.06;;;19.28;56.86
17521;BME280;8878;-33.370;-70.552;2023-02-25T10:18:45;92116.66;;;19.53;56.45
17521;BME280;8878;-33.370;-70.552;2023-02-25T10:21:24;92118.19;;;19.54;56.16
17521;BME280;8878;-33.370;-70.552;2023-02-25T10:24:08;92111.94;;;19.50;55.92
17521;BME280;8878;-33.370;-70.552;2023-02-25T10:26:44;92126.00;;;19.68;55.26
17521;BME280;8878;-33.370;-70.552;2023-02-25T10:29:27;92128.09;;;19.92;54.71
17521;BME280;8878;-33.370;-70.552;2023-02-25T10:31:59;92136.16;;;19.45;56.80
17521;BME280;8878;-33.370;-70.552;2023-02-25T10:34:40;92139.75;;;19.58;56.21
17521;BME280;8878;-33.370;-70.552;2023-02-25T10:37:16;92139.78;;;19.49;56.73
17521;BME280;8878;-33.370;-70.552;2023-02-25T10:39:47;92140.72;;;19.53;56.58
17521;BME280;8878;-33.370;-70.552;2023-02-25T10:42:18;92150.72;;;19.74;57.07
17521;BME280;8878;-33.370;-70.552;2023-02-25T10:44:49;92159.66;;;19.78;56.72
17521;BME280;8878;-33.370;-70.552;2023-02-25T10:47:25;92145.81;;;19.76;56.90
17521;BME280;8878;-33.370;-70.552;2023-02-25T10:50:18;92157.19;;;19.73;57.36
17521;BME280;8878;-33.370;-70.552;2023-02-25T10:52:55;92162.53;;;19.73;56.94
17521;BME280;8878;-33.370;-70.552;2023-02-25T10:55:34;92161.88;;;19.76;56.15
17521;BME280;8878;-33.370;-70.552;2023-02-25T10:58:05;92158.09;;;19.77;55.97
17521;BME280;8878;-33.370;-70.552;2023-02-25T11:00:56;92152.81;;;19.60;56.78
17521;BME280;8878;-33.370;-70.552;2023-02-25T11:03:29;92148.47;;;19.46;56.56
17521;BME280;8878;-33.370;-70.552;2023-02-25T11:06:17;92151.63;;;19.31;56.28
17521;BME280;8878;-33.370;-70.552;2023-02-25T11:08:46;92148.78;;;19.19;56.49
17521;BME280;8878;-33.370;-70.552;2023-02-25T11:11:19;92146.09;;;19.53;55.28
17521;BME280;8878;-33.370;-70.552;2023-02-25T11:14:03;92152.94;;;19.72;54.16
17521;BME280;8878;-33.370;-70.552;2023-02-25T11:16:36;92151.91;;;19.85;53.96
17521;BME280;8878;-33.370;-70.552;2023-02-25T11:19:12;92149.69;;;19.96;53.56
17521;BME280;8878;-33.370;-70.552;2023-02-25T11:21:43;92148.78;;;20.12;53.92
17521;BME280;8878;-33.370;-70.552;2023-02-25T11:24:14;92155.72;;;20.13;53.40
17521;BME280;8878;-33.370;-70.552;2023-02-25T11:26:47;92161.75;;;20.10;53.50
17521;BME280;8878;-33.370;-70.552;2023-02-25T11:29:20;92164.41;;;20.10;53.26
17521;BME280;8878;-33.370;-70.552;2023-02-25T11:31:54;92165.81;;;20.46;52.90
17521;BME280;8878;-33.370;-70.552;2023-02-25T11:34:26;92165.03;;;20.66;51.40
17521;BME280;8878;-33.370;-70.552;2023-02-25T11:36:57;92171.88;;;20.76;50.76
17521;BME280;8878;-33.370;-70.552;2023-02-25T11:39:52;92181.59;;;20.89;50.97
17521;BME280;8878;-33.370;-70.552;2023-02-25T11:42:23;92184.97;;;20.98;50.75
17521;BME280;8878;-33.370;-70.552;2023-02-25T11:44:58;92177.56;;;21.16;50.26
17521;BME280;8878;-33.370;-70.552;2023-02-25T11:47:31;92180.00;;;21.08;50.42
17521;BME280;8878;-33.370;-70.552;2023-02-25T11:50:20;92182.94;;;21.16;51.01
17521;BME280;8878;-33.370;-70.552;2023-02-25T11:52:59;92190.84;;;20.91;51.04
17521;BME280;8878;-33.370;-70.552;2023-02-25T11:55:48;92183.94;;;20.40;53.73
17521;BME280;8878;-33.370;-70.552;2023-02-25T11:58:25;92190.06;;;20.49;54.16
17521;BME280;8878;-33.370;-70.552;2023-02-25T12:01:00;92186.63;;;20.40;54.18
17521;BME280;8878;-33.370;-70.552;2023-02-25T12:06:36;92180.59;;;20.52;53.70
17521;BME280;8878;-33.370;-70.552;2023-02-25T12:09:33;92171.72;;;20.60;53.55
17521;BME280;8878;-33.370;-70.552;2023-02-25T12:12:31;92187.31;;;20.99;52.84
17521;BME280;8878;-33.370;-70.552;2023-02-25T12:15:27;92181.84;;;20.96;53.10
17521;BME280;8878;-33.370;-70.552;2023-02-25T12:24:37;92181.72;;;21.46;51.94
17521;BME280;8878;-33.370;-70.552;2023-02-25T12:27:36;92183.34;;;21.59;51.41
17521;BME280;8878;-33.370;-70.552;2023-02-25T12:30:31;92187.75;;;21.43;52.04
17521;BME280;8878;-33.370;-70.552;2023-02-25T12:33:14;92193.19;;;21.14;52.25
17521;BME280;8878;-33.370;-70.552;2023-02-25T12:36:08;92192.16;;;20.85;53.16
17521;BME280;8878;-33.370;-70.552;2023-02-25T12:39:03;92188.22;;;20.83;53.68
17521;BME280;8878;-33.370;-70.552;2023-02-25T12:41:46;92198.69;;;20.76;53.70
17521;BME280;8878;-33.370;-70.552;2023-02-25T12:44:42;92209.41;;;20.96;53.67
17521;BME280;8878;-33.370;-70.552;2023-02-25T12:47:28;92199.97;;;20.49;54.54
17521;BME280;8878;-33.370;-70.552;2023-02-25T12:50:28;92205.25;;;20.87;54.11
17521;BME280;8878;-33.370;-70.552;2023-02-25T12:53:23;92205.50;;;21.15;53.23
17521;BME280;8878;-33.370;-70.552;2023-02-25T12:56:19;92210.81;;;21.02;53.63
17521;BME280;8878;-33.370;-70.552;2023-02-25T13:01:55;92219.78;;;20.86;53.51
17521;BME280;8878;-33.370;-70.552;2023-02-25T13:07:56;92219.31;;;21.04;52.32
17521;BME280;8878;-33.370;-70.552;2023-02-25T13:10:45;92224.47;;;21.51;52.25
17521;BME280;8878;-33.370;-70.552;2023-02-25T13:13:43;92216.41;;;21.51;51.22
17521;BME280;8878;-33.370;-70.552;2023-02-25T13:16:26;92221.84;;;21.42;52.50
17521;BME280;8878;-33.370;-70.552;2023-02-25T13:19:18;92222.00;;;21.25;52.88
17521;BME280;8878;-33.370;-70.552;2023-02-25T13:22:08;92218.13;;;21.68;51.56
17521;BME280;8878;-33.370;-70.552;2023-02-25T13:24:49;92233.31;;;21.52;52.32
17521;BME280;8878;-33.370;-70.552;2023-02-25T13:27:40;92225.44;;;21.79;50.99
17521;BME280;8878;-33.370;-70.552;2023-02-25T13:30:37;92227.66;;;21.77;50.87
17521;BME280;8878;-33.370;-70.552;2023-02-25T13:33:20;92225.72;;;22.11;50.67
17521;BME280;8878;-33.370;-70.552;2023-02-25T13:35:55;92233.81;;;21.78;51.70